New Hope, Missouri
Current Conditions -  °F | °C
As of 1:54 PM on Thursday 30 Oct 2014 (Local Time) from KSET Reporting Station
Overcast Overcast  
Wind Chill: 54°   Ceiling: 9000
Heat Index: 54°   Visibility: 10mi
Dew Point: 45°   Wind: 5mph
Humidity: 72%   Direction: 20°NNE
Pressure: 30.05"   Gusts: NA
Location:  39.1646°N, 90.8436°W
Report Text: KSET 301854Z AUTO 02004KT 10SM SCT070 OVC090 12/07 A3005 RMK AO2 RAB09E41 SLP177 P0002 T01220072
Loading
Personal Weather Stations






























Interactive Weather Map
Tropical Storm Tracking
New forecast layout! Learn more

10-Day Weather Forecast

Advertisements
Track Severe Weather on mobile